Time;durP1;ratioP1;P1;durP2;ratioP2;P2;SDS_P1;SDS_P2;PMS_P1;PMS_P2;Temp;Humidity;BMP_temperature;BMP_pressure;BME280_temperature;BME280_humidity;BME280_pressure;Samples;Min_cycle;Max_cycle;Signal;HPM_P1;HPM_P2
2022/05/29 00:01:44;;;;;;;3.70;2.00;;;;;;;7.76;100.00;100514.16;4928183;29;20207;-75
2022/05/29 00:04:10;;;;;;;2.87;1.40;;;;;;;7.69;100.00;100510.81;4928414;29;20207;-74
2022/05/29 00:06:40;;;;;;;2.70;1.57;;;;;;;7.65;100.00;100511.75;4927426;29;20210;-74
2022/05/29 00:09:08;;;;;;;3.47;1.57;;;;;;;7.67;100.00;100514.28;4929125;29;20199;-75
2022/05/29 00:11:35;;;;;;;2.07;1.47;;;;;;;7.60;100.00;100516.16;4928051;29;20688;-75
2022/05/29 00:14:01;;;;;;;11.80;2.30;;;;;;;7.49;100.00;100516.31;4928362;29;20203;-75
2022/05/29 00:16:28;;;;;;;3.67;1.60;;;;;;;7.59;100.00;100512.66;4926013;29;20576;-75
2022/05/29 00:18:54;;;;;;;5.07;1.70;;;;;;;7.62;100.00;100509.19;4930384;29;20698;-75
2022/05/29 00:21:21;;;;;;;6.83;1.50;;;;;;;7.24;100.00;100518.38;4927180;29;20210;-75
2022/05/29 00:23:49;;;;;;;3.87;1.50;;;;;;;7.34;100.00;100519.13;4929708;29;20587;-75
2022/05/29 00:26:16;;;;;;;3.97;1.50;;;;;;;7.31;100.00;100519.16;4927318;29;20298;-75
2022/05/29 00:28:43;;;;;;;2.17;1.60;;;;;;;7.42;100.00;100521.59;4928820;29;20391;-75
2022/05/29 00:31:09;;;;;;;1.57;1.43;;;;;;;7.47;100.00;100514.59;4927585;29;20203;-75
2022/05/29 00:33:36;;;;;;;2.40;1.60;;;;;;;7.46;100.00;100518.06;4930823;29;20203;-75
2022/05/29 00:36:04;;;;;;;4.67;1.60;;;;;;;7.41;100.00;100512.97;4928591;28;20392;-74
2022/05/29 00:38:33;;;;;;;2.00;1.23;;;;;;;7.38;100.00;100513.00;4925323;29;20231;-75
2022/05/29 00:41:17;;;;;;;5.67;1.63;;;;;;;7.40;100.00;100500.88;4928905;29;20199;-75
2022/05/29 00:43:43;;;;;;;2.37;1.47;;;;;;;7.38;100.00;100500.88;4928263;29;20588;-75
2022/05/29 00:46:12;;;;;;;7.10;1.83;;;;;;;7.32;100.00;100497.56;4917221;29;20214;-74
2022/05/29 00:48:38;;;;;;;3.50;1.67;;;;;;;7.15;100.00;100501.22;4912759;29;20653;-75
2022/05/29 00:51:12;;;;;;;2.10;1.60;;;;;;;7.20;100.00;100504.59;4925322;29;20210;-75
2022/05/29 00:53:39;;;;;;;1.97;1.17;;;;;;;7.26;100.00;100492.44;4928728;29;20206;-75
2022/05/29 00:56:11;;;;;;;3.37;1.70;;;;;;;7.07;100.00;100486.66;4926043;29;20210;-75
2022/05/29 00:58:38;;;;;;;2.63;1.33;;;;;;;7.01;100.00;100488.44;4927363;29;20230;-75
2022/05/29 01:01:05;;;;;;;1.63;1.30;;;;;;;7.04;100.00;100484.13;4929341;29;20203;-74
2022/05/29 01:03:31;;;;;;;3.53;1.37;;;;;;;6.87;100.00;100481.75;4928249;29;20201;-75
2022/05/29 01:05:58;;;;;;;10.23;1.77;;;;;;;6.75;100.00;100482.75;4927440;29;20317;-74
2022/05/29 01:08:29;;;;;;;2.30;1.57;;;;;;;6.84;100.00;100493.00;4928278;29;20438;-75
2022/05/29 01:11:12;;;;;;;6.20;1.87;;;;;;;6.76;100.00;100489.66;4930126;29;20207;-75
2022/05/29 01:13:49;;;;;;;1.60;1.10;;;;;;;6.71;100.00;100484.53;4932101;29;20215;-75
2022/05/29 01:16:23;;;;;;;6.03;1.47;;;;;;;6.53;100.00;100487.34;4930314;29;20602;-75
2022/05/29 01:19:02;;;;;;;3.67;1.30;;;;;;;6.49;100.00;100486.53;4924288;29;20199;-75
2022/05/29 01:21:50;;;;;;;4.00;1.60;;;;;;;6.37;100.00;100486.66;4930057;29;20203;-75
2022/05/29 01:24:41;;;;;;;3.87;1.70;;;;;;;6.36;100.00;100485.78;4923145;29;20230;-75
2022/05/29 01:27:40;;;;;;;2.63;1.20;;;;;;;6.34;100.00;100487.53;4926108;29;20223;-74
2022/05/29 01:30:13;;;;;;;2.70;1.47;;;;;;;6.33;100.00;100490.16;4927449;29;20207;-75
2022/05/29 01:32:45;;;;;;;2.03;1.33;;;;;;;6.28;100.00;100491.94;4929527;29;20726;-75
2022/05/29 01:35:14;;;;;;;3.40;1.60;;;;;;;6.13;100.00;100483.44;4929610;29;20203;-75
2022/05/29 01:37:49;;;;;;;3.27;1.67;;;;;;;6.31;100.00;100489.31;4930426;29;20406;-75
2022/05/29 01:40:25;;;;;;;3.80;1.40;;;;;;;6.31;100.00;100478.97;4930946;29;20571;-75
2022/05/29 01:42:57;;;;;;;4.67;1.20;;;;;;;6.24;100.00;100486.81;4932062;29;20214;-75
2022/05/29 01:45:32;;;;;;;4.23;1.73;;;;;;;6.19;100.00;100483.41;4933215;29;20238;-74
2022/05/29 01:48:08;;;;;;;17.40;1.90;;;;;;;6.18;100.00;100480.81;4932091;29;20226;-75
2022/05/29 01:50:38;;;;;;;4.30;1.40;;;;;;;6.20;100.00;100476.47;4933098;29;20218;-75
2022/05/29 01:53:11;;;;;;;4.77;1.47;;;;;;;6.18;100.00;100473.91;4928910;29;20203;-74
2022/05/29 01:55:42;;;;;;;1.60;1.43;;;;;;;6.18;100.00;100476.50;4935859;29;20219;-75
2022/05/29 01:58:13;;;;;;;1.70;1.23;;;;;;;6.13;100.00;100480.00;4929744;29;20234;-75
2022/05/29 02:00:42;;;;;;;1.47;1.37;;;;;;;6.15;100.00;100476.53;4916983;29;20214;-74
2022/05/29 02:03:12;;;;;;;6.43;1.70;;;;;;;6.17;100.00;100479.94;4929955;29;20200;-75
2022/05/29 02:05:43;;;;;;;4.03;1.63;;;;;;;6.06;100.00;100476.63;4927892;29;20219;-75
2022/05/29 02:08:13;;;;;;;5.10;1.50;;;;;;;6.07;100.00;100471.44;4929747;29;20219;-75
2022/05/29 02:10:45;;;;;;;2.07;1.70;;;;;;;6.11;100.00;100474.00;4929817;29;20212;-75
2022/05/29 02:13:21;;;;;;;2.43;1.53;;;;;;;6.02;100.00;100464.59;4928783;29;20230;-75
2022/05/29 02:15:55;;;;;;;4.87;1.60;;;;;;;5.87;100.00;100470.72;4930651;29;20207;-74
2022/05/29 02:18:37;;;;;;;3.43;1.63;;;;;;;5.95;100.00;100466.34;4928246;29;20222;-75
2022/05/29 02:21:09;;;;;;;5.93;1.90;;;;;;;5.71;100.00;100471.75;4930380;29;20203;-75
2022/05/29 02:23:39;;;;;;;2.73;1.13;;;;;;;5.85;100.00;100469.88;4929492;29;20756;-75
2022/05/29 02:26:09;;;;;;;2.80;1.73;;;;;;;5.77;100.00;100463.91;4931401;29;20230;-75
2022/05/29 02:28:39;;;;;;;2.67;1.30;;;;;;;5.63;100.00;100470.09;4928243;29;20223;-74
2022/05/29 02:31:17;;;;;;;1.60;1.20;;;;;;;5.72;100.00;100473.44;4928309;29;20210;-76
2022/05/29 02:33:54;;;;;;;2.27;1.57;;;;;;;5.69;100.00;100464.00;4930112;29;20214;-74
2022/05/29 02:36:32;;;;;;;3.43;1.47;;;;;;;5.73;100.00;100472.59;4929951;29;20212;-74
2022/05/29 02:39:21;;;;;;;5.53;1.40;;;;;;;5.82;100.00;100464.72;4927982;29;20199;-73
2022/05/29 02:42:03;;;;;;;8.27;1.73;;;;;;;5.72;100.00;100466.56;4930340;29;20211;-74
2022/05/29 02:44:38;;;;;;;1.57;1.43;;;;;;;5.73;100.00;100464.81;4931417;29;20298;-73
2022/05/29 02:47:15;;;;;;;2.30;1.13;;;;;;;5.74;100.00;100459.63;4927990;29;20215;-72
2022/05/29 02:49:46;;;;;;;4.97;2.10;;;;;;;5.77;100.00;100457.03;4933327;29;20572;-74
2022/05/29 02:52:14;;;;;;;2.97;1.87;;;;;;;5.63;100.00;100458.88;4927244;29;20207;-74
2022/05/29 02:54:41;;;;;;;3.50;1.50;;;;;;;5.72;100.00;100458.78;4928802;29;20218;-74
2022/05/29 02:57:10;;;;;;;2.50;1.50;;;;;;;5.58;100.00;100463.22;4929492;29;20703;-73
2022/05/29 02:59:41;;;;;;;4.00;1.90;;;;;;;5.69;100.00;100464.00;4929097;29;20295;-73
2022/05/29 03:02:16;;;;;;;4.17;1.47;;;;;;;5.56;100.00;100462.38;4933572;29;20209;-74
2022/05/29 03:04:54;;;;;;;3.73;1.33;;;;;;;5.65;100.00;100457.13;4931371;29;20257;-74
2022/05/29 03:07:32;;;;;;;2.37;1.63;;;;;;;5.68;100.00;100450.22;4926770;29;20569;-74
2022/05/29 03:10:09;;;;;;;4.60;1.43;;;;;;;5.59;100.00;100459.75;4930915;29;20206;-73
2022/05/29 03:12:52;;;;;;;3.40;1.70;;;;;;;5.44;100.00;100455.59;4927443;29;20206;-74
2022/05/29 03:15:31;;;;;;;6.27;1.90;;;;;;;5.62;100.00;100454.56;4930553;29;20710;-74
2022/05/29 03:18:20;;;;;;;5.87;2.10;;;;;;;5.51;100.00;100452.06;4926511;29;20433;-73
2022/05/29 03:20:57;;;;;;;8.17;1.83;;;;;;;5.49;100.00;100454.66;4928554;29;20245;-74
2022/05/29 03:23:41;;;;;;;2.80;1.40;;;;;;;5.42;100.00;100458.19;4930685;29;20210;-73
2022/05/29 03:26:15;;;;;;;3.30;1.80;;;;;;;5.31;100.00;100452.22;4926784;29;20230;-74
2022/05/29 03:28:47;;;;;;;1.40;1.23;;;;;;;5.52;100.00;100456.34;4930106;29;20238;-73
2022/05/29 03:31:20;;;;;;;2.43;1.60;;;;;;;5.32;100.00;100454.78;4930364;29;20214;-74
2022/05/29 03:33:49;;;;;;;6.00;1.67;;;;;;;5.27;100.00;100464.31;4931515;29;20594;-74
2022/05/29 03:36:16;;;;;;;1.97;1.43;;;;;;;5.10;100.00;100461.84;4928621;29;20214;-74
2022/05/29 03:38:43;;;;;;;2.43;1.60;;;;;;;5.44;100.00;100459.03;4927793;29;20227;-74
2022/05/29 03:41:14;;;;;;;4.07;1.70;;;;;;;5.46;100.00;100462.44;4928346;29;20218;-74
2022/05/29 03:43:42;;;;;;;2.93;1.50;;;;;;;5.43;100.00;100467.63;4929095;29;20211;-73
2022/05/29 03:46:08;;;;;;;5.30;1.97;;;;;;;5.59;100.00;100462.34;4928193;29;20223;-74
2022/05/29 03:48:35;;;;;;;4.00;1.60;;;;;;;5.64;100.00;100465.75;4928537;29;20231;-74
2022/05/29 03:51:05;;;;;;;3.93;1.97;;;;;;;5.76;100.00;100457.88;4931240;29;20235;-74
2022/05/29 03:53:32;;;;;;;3.80;1.50;;;;;;;5.52;100.00;100468.44;4931130;29;20475;-73
2022/05/29 03:55:58;;;;;;;6.00;1.70;;;;;;;5.75;100.00;100471.72;4929028;29;20200;-74
2022/05/29 03:58:24;;;;;;;5.63;1.23;;;;;;;5.84;100.00;100471.63;4929903;29;20230;-74
2022/05/29 04:00:51;;;;;;;6.17;1.70;;;;;;;5.85;100.00;100477.66;4913216;29;20208;-74
2022/05/29 04:03:17;;;;;;;7.33;1.97;;;;;;;5.92;100.00;100471.53;4926473;29;20561;-74
2022/05/29 04:05:44;;;;;;;3.63;1.97;;;;;;;5.77;100.00;100476.84;4926909;29;20571;-74
2022/05/29 04:13:43;;;;;;;5.90;1.67;;;;;;;5.90;100.00;100481.06;4924743;29;20207;-73
2022/05/29 04:16:10;;;;;;;4.10;2.30;;;;;;;6.00;100.00;100481.88;4928022;29;20199;-74
2022/05/29 04:18:37;;;;;;;4.97;2.00;;;;;;;6.05;100.00;100475.78;4927546;29;20227;-73
2022/05/29 04:21:05;;;;;;;11.37;1.63;;;;;;;6.11;100.00;100476.59;4925332;29;20212;-73
2022/05/29 04:23:33;;;;;;;5.00;1.87;;;;;;;6.17;100.00;100479.94;4927107;29;20203;-74
2022/05/29 04:26:00;;;;;;;3.40;1.87;;;;;;;6.21;100.00;100480.81;4925655;29;20265;-74
2022/05/29 04:28:26;;;;;;;4.30;1.97;;;;;;;6.33;100.00;100475.50;4929054;29;20607;-74
2022/05/29 04:30:52;;;;;;;9.73;2.33;;;;;;;6.39;100.00;100472.81;4929368;29;20210;-74
2022/05/29 04:33:19;;;;;;;6.37;2.50;;;;;;;6.53;100.00;100472.66;4929334;29;20573;-74
2022/05/29 04:35:49;;;;;;;2.30;1.70;;;;;;;6.72;100.00;100478.47;4928036;29;20298;-73
2022/05/29 04:38:23;;;;;;;5.97;2.17;;;;;;;6.73;100.00;100481.91;4928749;29;20220;-74
2022/05/29 04:40:52;;;;;;;2.90;2.10;;;;;;;6.87;100.00;100479.16;4931110;29;20210;-74
2022/05/29 04:43:19;;;;;;;4.80;1.50;;;;;;;6.88;100.00;100480.84;4926872;29;20470;-74
2022/05/29 04:45:47;;;;;;;3.07;1.70;;;;;;;7.05;100.00;100476.28;4927190;29;20286;-74
2022/05/29 04:48:16;;;;;;;4.50;1.77;;;;;;;7.18;100.00;100477.00;4925415;29;20229;-74
2022/05/29 04:50:43;;;;;;;4.27;1.50;;;;;;;7.27;100.00;100479.44;4926521;29;20230;-73
2022/05/29 04:53:10;;;;;;;5.67;1.83;;;;;;;7.49;100.00;100472.22;4928596;29;20198;-73
2022/05/29 04:55:38;;;;;;;4.87;2.10;;;;;;;7.53;100.00;100473.03;4927787;29;20207;-74
2022/05/29 04:58:06;;;;;;;3.27;2.20;;;;;;;7.71;100.00;100464.91;4930691;28;20680;-73
2022/05/29 05:00:33;;;;;;;6.13;1.93;;;;;;;7.76;100.00;100468.28;4927885;29;20203;-73
2022/05/29 05:03:01;;;;;;;4.70;2.03;;;;;;;7.82;100.00;100467.31;4927992;29;20297;-73
2022/05/29 05:05:28;;;;;;;5.70;2.03;;;;;;;8.01;100.00;100464.41;4928597;29;20239;-74
2022/05/29 05:07:54;;;;;;;2.27;1.50;;;;;;;8.13;100.00;100472.84;4929389;28;20315;-73
2022/05/29 05:10:21;;;;;;;3.87;1.80;;;;;;;8.10;100.00;100465.09;4931652;29;20746;-73
2022/05/29 05:12:47;;;;;;;4.40;1.93;;;;;;;8.19;100.00;100463.22;4936958;29;20552;-73
2022/05/29 05:15:16;;;;;;;2.03;1.50;;;;;;;8.32;100.00;100464.72;4931523;29;20217;-74
2022/05/29 05:17:43;;;;;;;3.13;1.83;;;;;;;8.40;100.00;100461.94;4932414;29;20239;-74
2022/05/29 05:20:11;;;;;;;3.17;1.77;;;;;;;8.52;100.00;100461.75;4932865;29;20195;-73
2022/05/29 05:22:37;;;;;;;2.93;1.97;;;;;;;8.63;100.00;100466.72;4933001;29;20200;-74
2022/05/29 05:25:04;;;;;;;3.13;1.50;;;;;;;8.59;100.00;100470.28;4932526;29;20210;-74
2022/05/29 05:27:31;;;;;;;5.83;1.87;;;;;;;8.73;100.00;100470.84;4931069;29;20254;-73
2022/05/29 05:29:58;;;;;;;5.27;2.17;;;;;;;8.79;100.00;100475.88;4929958;29;20676;-74
2022/05/29 05:32:25;;;;;;;4.33;1.97;;;;;;;8.87;100.00;100468.78;4932467;29;22531;-74
2022/05/29 05:34:52;;;;;;;3.90;1.60;;;;;;;9.01;100.00;100476.28;4932406;29;20216;-73
2022/05/29 05:37:18;;;;;;;5.60;1.70;;;;;;;9.17;100.00;100465.56;4930863;29;20218;-73
2022/05/29 05:39:45;;;;;;;4.27;1.97;;;;;;;9.27;100.00;100467.06;4931431;29;20209;-73
2022/05/29 05:42:12;;;;;;;3.60;1.60;;;;;;;9.38;99.11;100475.47;4931111;29;20197;-74
2022/05/29 05:44:38;;;;;;;3.07;1.60;;;;;;;9.44;98.29;100472.69;4934181;29;20203;-74
2022/05/29 05:47:05;;;;;;;3.20;1.80;;;;;;;9.60;99.65;100468.00;4930779;29;20234;-73
2022/05/29 05:49:33;;;;;;;2.57;1.60;;;;;;;9.72;96.92;100466.81;4929833;29;20558;-73
2022/05/29 05:52:00;;;;;;;4.33;1.80;;;;;;;9.93;99.21;100459.38;4928239;29;20208;-73
2022/05/29 05:54:30;;;;;;;6.17;1.73;;;;;;;10.08;98.15;100465.91;4929912;29;20594;-74
2022/05/29 05:56:56;;;;;;;4.50;1.90;;;;;;;10.42;96.92;100471.09;4917697;29;20226;-73
2022/05/29 05:59:23;;;;;;;4.93;1.83;;;;;;;10.53;93.17;100468.19;4927350;29;20199;-73
2022/05/29 06:01:49;;;;;;;4.40;1.70;;;;;;;10.59;93.32;100475.84;4930264;29;20203;-74
2022/05/29 06:04:15;;;;;;;2.77;1.30;;;;;;;10.52;93.26;100474.31;4929805;29;20762;-72
2022/05/29 06:06:43;;;;;;;4.30;1.40;;;;;;;10.62;94.32;100465.31;4927769;29;20223;-72
2022/05/29 06:09:09;;;;;;;5.10;1.83;;;;;;;10.73;92.91;100476.31;4928889;29;20207;-74
2022/05/29 06:11:39;;;;;;;2.07;1.47;;;;;;;10.74;92.13;100479.75;4926874;29;20203;-73
2022/05/29 06:14:06;;;;;;;2.00;1.50;;;;;;;10.83;92.55;100481.25;4928479;29;20216;-73
2022/05/29 06:16:33;;;;;;;3.50;1.30;;;;;;;10.81;91.50;100478.66;4927804;29;20207;-73
2022/05/29 06:18:59;;;;;;;3.67;1.20;;;;;;;10.86;91.23;100481.16;4929857;29;20210;-73
2022/05/29 06:21:25;;;;;;;4.67;1.83;;;;;;;10.93;91.28;100480.06;4932290;29;20218;-73
2022/05/29 06:23:53;;;;;;;3.10;1.73;;;;;;;11.11;91.15;100479.50;4931522;29;20231;-73
2022/05/29 06:26:19;;;;;;;4.40;1.90;;;;;;;11.28;89.62;100486.81;4927962;29;20770;-73
2022/05/29 06:28:46;;;;;;;3.20;1.23;;;;;;;11.46;90.84;100481.91;4929186;29;20583;-74
2022/05/29 06:31:13;;;;;;;5.13;1.60;;;;;;;11.42;87.42;100491.59;4929612;29;20219;-73
2022/05/29 06:33:39;;;;;;;3.20;1.27;;;;;;;11.54;87.45;100490.38;4932070;29;20203;-73
2022/05/29 06:36:07;;;;;;;4.90;1.40;;;;;;;11.59;87.57;100485.84;4927569;29;20209;-73
2022/05/29 06:38:34;;;;;;;4.97;1.37;;;;;;;11.72;88.45;100487.16;4928837;29;20216;-73
2022/05/29 06:41:04;;;;;;;3.43;1.20;;;;;;;11.71;88.61;100487.19;4930586;29;20196;-73
2022/05/29 06:43:31;;;;;;;4.53;1.50;;;;;;;11.71;87.90;100484.56;4928893;29;20730;-73
2022/05/29 06:45:57;;;;;;;3.20;1.10;;;;;;;11.74;87.72;100492.31;4928430;29;20226;-73
2022/05/29 06:48:23;;;;;;;2.40;1.43;;;;;;;12.00;87.67;100490.63;4930000;29;20223;-73
2022/05/29 06:50:50;;;;;;;3.50;1.53;;;;;;;12.21;88.46;100495.13;4925834;29;20311;-72
2022/05/29 06:53:16;;;;;;;2.70;1.30;;;;;;;12.34;86.55;100492.91;4928320;29;20659;-73
2022/05/29 06:55:51;;;;;;;3.17;1.50;;;;;;;12.39;86.02;100495.38;4924020;29;20202;-73
2022/05/29 06:58:18;;;;;;;4.13;1.30;;;;;;;12.41;85.84;100488.31;4921701;29;20241;-73
2022/05/29 07:08:56;;;;;;;3.60;1.50;;;;;;;12.58;83.51;100493.81;4923295;29;20203;-73
2022/05/29 07:11:26;;;;;;;1.60;1.30;;;;;;;12.77;83.08;100491.38;4926129;29;20687;-73
2022/05/29 07:13:55;;;;;;;2.67;1.40;;;;;;;12.92;82.33;100484.69;4926260;29;20207;-73
2022/05/29 07:16:21;;;;;;;2.33;1.40;;;;;;;13.06;83.54;100485.00;4927351;29;20199;-73
2022/05/29 07:18:50;;;;;;;4.10;1.40;;;;;;;13.23;80.00;100489.59;4927552;29;20212;-73
2022/05/29 07:21:17;;;;;;;5.43;1.70;;;;;;;13.39;79.26;100487.25;4921887;29;20258;-73
2022/05/29 07:23:44;;;;;;;3.13;1.40;;;;;;;13.40;79.32;100488.97;4928154;29;20587;-74
2022/05/29 07:26:10;;;;;;;2.70;1.50;;;;;;;13.54;82.04;100490.16;4925761;29;20587;-73
2022/05/29 07:28:37;;;;;;;4.30;1.40;;;;;;;13.37;78.33;100496.09;4921363;29;20607;-72
2022/05/29 07:31:04;;;;;;;1.70;1.30;;;;;;;13.19;78.03;100490.63;4928105;29;20236;-73
2022/05/29 07:33:31;;;;;;;3.37;1.10;;;;;;;13.11;80.50;100497.94;4928259;29;20200;-73
2022/05/29 07:35:59;;;;;;;3.30;1.27;;;;;;;13.38;81.88;100492.53;4928234;29;20209;-73
2022/05/29 07:38:26;;;;;;;4.33;1.30;;;;;;;13.76;78.77;100493.59;4921065;29;20219;-73
2022/05/29 07:40:53;;;;;;;2.23;1.13;;;;;;;13.67;75.79;100504.47;4924049;29;20677;-73
2022/05/29 07:43:19;;;;;;;23.83;15.13;;;;;;;13.53;76.37;100497.19;4922893;29;20213;-73
2022/05/29 07:45:46;;;;;;;2.43;2.13;;;;;;;13.41;79.37;100503.75;4927379;29;20701;-73
2022/05/29 07:48:14;;;;;;;3.33;1.40;;;;;;;12.97;77.75;100513.31;4920235;29;20236;-73
2022/05/29 07:50:40;;;;;;;4.20;1.27;;;;;;;12.78;80.16;100503.50;4928852;29;20211;-72
2022/05/29 07:53:07;;;;;;;1.50;1.10;;;;;;;12.75;79.36;100510.63;4924060;29;20350;-73
2022/05/29 07:55:33;;;;;;;2.57;1.13;;;;;;;12.75;78.10;100508.00;4925905;29;20202;-73
2022/05/29 07:58:00;;;;;;;2.43;1.10;;;;;;;12.79;78.33;100507.00;4917318;29;20262;-73
2022/05/29 08:00:27;;;;;;;3.53;1.00;;;;;;;12.76;78.69;100505.34;4929580;28;20210;-72
2022/05/29 08:02:53;;;;;;;1.97;1.10;;;;;;;12.74;78.78;100509.78;4923626;29;20583;-73
2022/05/29 08:05:21;;;;;;;2.33;1.00;;;;;;;12.83;78.38;100505.97;4923117;29;20203;-73
2022/05/29 08:07:49;;;;;;;2.60;1.20;;;;;;;13.03;80.77;100498.22;4918789;29;20234;-72
2022/05/29 08:10:18;;;;;;;3.40;1.50;;;;;;;13.13;78.16;100501.34;4917397;29;20216;-72
2022/05/29 08:12:45;;;;;;;2.43;1.23;;;;;;;13.29;79.95;100501.59;4925411;29;20664;-72
2022/05/29 08:15:11;;;;;;;2.80;1.73;;;;;;;13.17;78.21;100502.91;4925076;29;20693;-73
2022/05/29 08:17:38;;;;;;;3.63;1.30;;;;;;;13.04;77.19;100502.53;4923753;29;20218;-73
2022/05/29 08:20:05;;;;;;;2.00;1.20;;;;;;;13.09;78.92;100499.75;4924613;29;20699;-72
2022/05/29 08:22:33;;;;;;;4.30;1.23;;;;;;;13.08;79.30;100506.72;4920949;29;20262;-73
2022/05/29 08:30:41;;;;;;;1.67;1.00;;;;;;;13.63;80.60;100495.00;4926087;29;20212;-73
2022/05/29 08:33:09;;;;;;;2.67;1.17;;;;;;;14.14;76.44;100500.75;4925356;29;20841;-73
2022/05/29 08:35:38;;;;;;;1.40;1.20;;;;;;;14.52;73.04;100506.13;4929341;29;20202;-73
2022/05/29 08:38:07;;;;;;;1.80;1.30;;;;;;;14.89;71.01;100515.00;4931822;29;20227;-73
2022/05/29 08:40:40;;;;;;;1.53;1.03;;;;;;;15.02;69.44;100510.00;4925794;29;20214;-73
2022/05/29 08:43:11;;;;;;;5.20;1.30;;;;;;;14.66;70.00;100503.75;4928019;29;20198;-73
2022/05/29 08:45:39;;;;;;;1.70;0.93;;;;;;;14.66;67.99;100502.91;4931149;29;20210;-72
2022/05/29 08:48:06;;;;;;;3.10;1.40;;;;;;;14.32;69.84;100501.75;4932675;29;20635;-73
2022/05/29 08:50:41;;;;;;;2.57;1.20;;;;;;;14.16;71.09;100497.19;4927601;29;20213;-73
2022/05/29 08:53:16;;;;;;;1.47;1.10;;;;;;;13.96;72.20;100505.03;4932236;29;20658;-73
2022/05/29 08:55:48;;;;;;;1.83;1.00;;;;;;;13.78;72.69;100499.63;4931008;29;20236;-73
2022/05/29 08:58:23;;;;;;;2.93;1.27;;;;;;;13.60;72.43;100492.56;4928134;29;20253;-72
2022/05/29 09:00:58;;;;;;;2.53;1.20;;;;;;;13.41;75.72;100493.28;4929965;29;20220;-72
2022/05/29 09:03:37;;;;;;;2.57;1.23;;;;;;;13.29;75.26;100493.72;4925491;29;20210;-73
2022/05/29 09:06:07;;;;;;;5.40;2.33;;;;;;;13.36;76.05;100492.59;4913960;29;20211;-73
2022/05/29 09:08:39;;;;;;;4.77;2.43;;;;;;;13.41;76.82;100495.06;4925219;29;20241;-73
2022/05/29 09:11:10;;;;;;;3.63;1.93;;;;;;;13.21;75.48;100494.03;4923977;29;20200;-73
2022/05/29 09:13:41;;;;;;;2.47;1.40;;;;;;;13.19;74.40;100490.63;4925327;29;20210;-73
2022/05/29 09:16:11;;;;;;;3.60;1.10;;;;;;;13.36;76.76;100489.97;4930899;29;20492;-73
2022/05/29 09:18:42;;;;;;;2.67;1.30;;;;;;;13.63;78.05;100484.53;4927307;29;20233;-72
2022/05/29 09:21:12;;;;;;;1.67;1.20;;;;;;;14.03;75.66;100488.13;4927432;29;20806;-72
2022/05/29 09:23:47;;;;;;;2.90;1.40;;;;;;;14.11;75.46;100488.66;4927714;29;20227;-73
2022/05/29 09:26:19;;;;;;;1.97;1.37;;;;;;;14.07;75.21;100488.84;4911586;29;20210;-72
2022/05/29 09:28:46;;;;;;;2.60;1.30;;;;;;;13.90;74.36;100492.19;4929267;29;20299;-73
2022/05/29 09:31:18;;;;;;;3.63;1.00;;;;;;;13.78;73.36;100493.56;4924474;29;20481;-72
2022/05/29 09:33:44;;;;;;;3.00;1.20;;;;;;;13.58;73.76;100494.38;4928700;29;20208;-73
2022/05/29 09:36:21;;;;;;;2.50;1.00;;;;;;;13.33;74.49;100487.50;4924556;29;20412;-73
2022/05/29 09:38:54;;;;;;;1.60;0.90;;;;;;;13.26;73.49;100484.25;4927435;29;20229;-73
2022/05/29 09:41:27;;;;;;;2.43;1.10;;;;;;;13.42;75.61;100481.91;4922587;29;20216;-73
2022/05/29 09:44:09;;;;;;;1.90;0.80;;;;;;;13.46;71.33;100490.47;4927575;29;20687;-73
2022/05/29 09:46:37;;;;;;;1.30;1.00;;;;;;;13.51;70.76;100491.16;4921825;29;20197;-72
2022/05/29 09:51:54;;;;;;;0.80;0.80;;;;;;;13.73;69.84;100482.41;4928346;29;20214;-73
2022/05/29 09:54:30;;;;;;;1.07;0.90;;;;;;;13.97;68.59;100480.53;4925240;29;20485;-73
2022/05/29 09:57:06;;;;;;;0.70;0.67;;;;;;;14.12;66.27;100479.00;4923408;29;20244;-73
2022/05/29 09:59:38;;;;;;;1.10;0.57;;;;;;;14.15;64.11;100482.34;4922954;29;20218;-72
2022/05/29 10:02:05;;;;;;;1.17;0.60;;;;;;;14.34;65.40;100477.16;4919731;29;20203;-72
2022/05/29 10:04:37;;;;;;;0.73;0.63;;;;;;;14.49;64.24;100480.88;4926909;29;20222;-73
2022/05/29 10:07:15;;;;;;;1.83;0.70;;;;;;;14.72;60.88;100492.13;4921472;29;20242;-73
2022/05/29 10:10:00;;;;;;;0.87;0.77;;;;;;;14.91;62.81;100477.22;4923003;29;20207;-73
2022/05/29 10:12:37;;;;;;;0.90;0.70;;;;;;;15.13;61.12;100477.09;4924445;29;20231;-72
2022/05/29 10:15:04;;;;;;;1.57;1.00;;;;;;;15.32;58.15;100478.84;4927453;29;20207;-73
2022/05/29 10:17:36;;;;;;;0.87;0.60;;;;;;;15.48;57.42;100474.53;4929118;29;20219;-73
2022/05/29 10:20:03;;;;;;;1.60;1.00;;;;;;;15.68;59.40;100472.72;4924729;29;20199;-72
2022/05/29 10:22:33;;;;;;;1.27;0.80;;;;;;;15.82;58.85;100466.78;4927494;29;20692;-73
2022/05/29 10:25:12;;;;;;;2.90;0.93;;;;;;;15.64;59.39;100474.63;4923955;29;20212;-73
2022/05/29 10:27:38;;;;;;;1.37;0.77;;;;;;;15.51;59.18;100473.53;4924039;29;20628;-73
2022/05/29 10:30:08;;;;;;;1.47;1.00;;;;;;;14.76;62.19;100473.56;4925026;29;20806;-73
2022/05/29 10:32:38;;;;;;;1.07;0.87;;;;;;;14.17;65.97;100475.25;4924894;29;20211;-73
2022/05/29 10:35:26;;;;;;;1.00;0.90;;;;;;;13.79;74.52;100459.44;4923661;29;20195;-73
2022/05/29 10:37:53;;;;;;;1.00;0.90;;;;;;;13.51;81.87;100453.59;4927450;29;20295;-73
2022/05/29 10:40:24;;;;;;;1.00;0.70;;;;;;;13.36;85.84;100452.47;4923828;29;20581;-73
2022/05/29 10:42:52;;;;;;;1.37;0.70;;;;;;;13.07;88.23;100444.84;4926679;29;20594;-74
2022/05/29 10:45:22;;;;;;;2.03;0.83;;;;;;;13.07;88.28;100454.47;4930054;29;20199;-74
2022/05/29 10:48:05;;;;;;;2.37;0.70;;;;;;;13.08;89.11;100448.31;4926966;29;20247;-74
2022/05/29 10:50:43;;;;;;;2.03;0.90;;;;;;;13.30;90.71;100439.59;4914099;29;20204;-73
2022/05/29 10:53:20;;;;;;;2.30;1.13;;;;;;;13.39;90.44;100439.28;4923799;29;20213;-74
2022/05/29 10:55:59;;;;;;;2.50;1.10;;;;;;;13.46;88.39;100445.13;4921477;29;20480;-74
2022/05/29 10:58:46;;;;;;;3.80;1.47;;;;;;;13.64;88.19;100439.94;4937292;23;20356;-68
2022/05/29 11:04:35;;;;;;;4.47;1.10;;;;;;;13.74;84.79;100445.66;4908387;29;20808;-68
2022/05/29 11:07:28;;;;;;;3.53;1.10;;;;;;;13.66;85.15;100444.28;4926768;29;20214;-68
2022/05/29 11:10:03;;;;;;;2.67;1.90;;;;;;;13.58;80.84;100453.31;4930247;29;20214;-68
2022/05/29 11:12:42;;;;;;;1.73;1.30;;;;;;;13.35;80.53;100454.25;4926037;29;20210;-68
2022/05/29 11:15:22;;;;;;;3.60;1.73;;;;;;;13.34;79.47;100454.31;4927166;29;20200;-68
2022/05/29 11:18:02;;;;;;;1.20;1.10;;;;;;;13.36;82.81;100447.25;4929380;29;20254;-68
2022/05/29 11:20:50;;;;;;;1.50;1.10;;;;;;;13.40;80.88;100452.31;4928269;29;20205;-68
2022/05/29 11:23:38;;;;;;;1.77;1.00;;;;;;;13.52;83.77;100445.69;4928397;29;20240;-68
2022/05/29 11:26:13;;;;;;;2.23;0.90;;;;;;;13.68;83.08;100447.69;4928508;29;20267;-68
2022/05/29 11:28:59;;;;;;;1.17;0.83;;;;;;;13.51;76.89;100459.72;4927978;29;20223;-68
2022/05/29 11:31:38;;;;;;;0.90;0.60;;;;;;;13.40;75.08;100462.78;4926386;29;20210;-68
2022/05/29 11:34:21;;;;;;;1.00;0.90;;;;;;;13.38;78.54;100453.25;4927323;29;20239;-68
2022/05/29 11:37:02;;;;;;;0.80;0.80;;;;;;;13.41;78.33;100453.16;4925135;29;20526;-69
2022/05/29 11:39:36;;;;;;;1.47;0.70;;;;;;;13.35;77.96;100451.63;4928305;29;20206;-69
2022/05/29 11:42:11;;;;;;;0.80;0.80;;;;;;;13.54;81.32;100443.00;4928062;29;20206;-69
2022/05/29 11:44:45;;;;;;;0.97;0.80;;;;;;;13.55;77.00;100452.59;4929398;29;20238;-69
2022/05/29 11:53:01;;;;;;;2.00;0.80;;;;;;;13.87;77.56;100437.28;4925557;29;20232;-70
2022/05/29 11:55:30;;;;;;;0.83;0.83;;;;;;;13.96;76.31;100435.09;4926961;29;20688;-70
2022/05/29 11:58:00;;;;;;;1.30;1.00;;;;;;;14.00;75.78;100434.06;4923018;29;20219;-70
2022/05/29 12:00:38;;;;;;;1.43;0.80;;;;;;;14.09;75.43;100424.09;4909833;29;20207;-71
2022/05/29 12:03:21;;;;;;;1.17;0.80;;;;;;;14.18;74.31;100421.91;4909478;29;20689;-70
2022/05/29 12:05:52;;;;;;;1.00;0.93;;;;;;;14.50;77.13;100410.91;4909513;29;20675;-71
2022/05/29 12:08:30;;;;;;;1.70;1.00;;;;;;;14.67;74.95;100420.63;4903327;29;20220;-69
2022/05/29 12:11:08;;;;;;;1.30;1.17;;;;;;;14.85;73.49;100414.53;4904873;29;20585;-71
2022/05/29 12:13:43;;;;;;;1.67;1.07;;;;;;;15.02;72.31;100421.63;4891262;29;20224;-69